Meteo Giornale » Osservazioni meteo Stati Uniti (USA) » Chattanooga Lovell Fld
ore: 08:53 - Osservazioni Meteo Chattanooga Lovell Fld
Lat. 35° 2' N Lon. 85° 12' W Alt. 207 metri s.l.m.
26 °C
Poco Nuvoloso
Temp. 24 Ore
23 °C
35 °C
Nord
0 Km/h
Dew point 21 °C
Umidità 73 %
Visibilità 10 Km
Il sole sorge alle ore 07:13
Il sole tramonta alle ore 20:07
| Data e Ora | Cielo e Fenomeni | T °C | DP °C | Um. % | Pres. hPa | Vis. km | Vento km/h | |
|---|---|---|---|---|---|---|---|---|
| Oggi h: 08:53 | Poco Nuvoloso | 26 | 21 | 73 | 1021 | 10 | N 0 | |
| Oggi h: 07:53 | Sereno | 23 | 21 | 88 | 1021 | 10 | N 0 | |
| Oggi h: 06:53 | Sereno | 23 | 21 | 88 | 1020 | 10 | N 5.5 | |
| Oggi h: 05:53 | Sereno | 23 | 21 | 88 | 1020 | 10 | N 5.5 | |
| Oggi h: 04:53 | Sereno | 24 | 21 | 83 | 1019 | 10 | N 0 | |
| Oggi h: 03:53 | Sereno | 24 | 21 | 83 | 1019 | 10 | N 0 | |
| Oggi h: 02:53 | Sereno | 24 | 21 | 83 | 1019 | 10 | N 0 | |
| Oggi h: 01:53 | Sereno | 24 | 21 | 83 | 1019 | 10 | N 0 | |
| Oggi h: 00:53 | Sereno | 24 | 21 | 83 | 1019 | 10 | N 0 | |
| Ieri h: 23:53 | Poco Nuvoloso | 26 | 21 | 73 | 1019 | 10 | N 0 | |
| Ieri h: 22:53 | Poco Nuvoloso | 27 | 21 | 69 | 1019 | 10 | N 0 | |
| Ieri h: 21:53 | Poco Nuvoloso | 26 | 21 | 73 | 1019 | 10 | N 0 | |
| Ieri h: 20:53 | Nuvoloso | 29 | 19 | 54 | 1018 | 10 | N 0 | |
| Ieri h: 19:53 | Poco Nuvoloso | 33 | 18 | 41 | 1018 | 10 | N 5.5 | |
| Ieri h: 18:53 | Nuvoloso | 34 | 18 | 38 | 1018 | 10 | S/SE 9.3 | |
| Ieri h: 17:53 | Poco Nuvoloso | 34 | 19 | 41 | 1018 | 10 | S 9.3 | |
| Ieri h: 16:53 | Poco Nuvoloso | 35 | 19 | 39 | 1019 | 10 | E 7.4 | |
| Ieri h: 15:53 | Nuvoloso | 35 | 19 | 39 | 1019 | 10 | NE 7.4 | |
| Ieri h: 14:53 | Nuvoloso | 34 | 19 | 41 | 1020 | 10 | N 7.4 | |
| Ieri h: 13:53 | Nuvoloso | 33 | 19 | 43 | 1021 | 10 | N 0 | |
| Ieri h: 12:53 | Nuvoloso | 32 | 21 | 52 | 1021 | 10 | N 0 | |
| Ieri h: 11:53 | Nuvoloso | 31 | 21 | 55 | 1022 | 10 | N 0 | |
| Ieri h: 10:53 | Poco Nuvoloso | 29 | 21 | 62 | 1022 | 10 | N 0 | |
| Ieri h: 09:53 | Poco Nuvoloso | 28 | 21 | 65 | 1022 | 10 | N 0 | |



